sensor_id;sensor_type;location;lat;lon;timestamp;P1;durP1;ratioP1;P2;durP2;ratioP2
21862;SDS011;11096;51.338;12.524;2024-02-28T00:01:36;62.17;;;25.73;;
21862;SDS011;11096;51.338;12.524;2024-02-28T00:04:02;55.60;;;25.48;;
21862;SDS011;11096;51.338;12.524;2024-02-28T00:06:27;62.03;;;25.63;;
21862;SDS011;11096;51.338;12.524;2024-02-28T00:08:52;63.70;;;26.15;;
21862;SDS011;11096;51.338;12.524;2024-02-28T00:11:19;55.72;;;23.40;;
21862;SDS011;11096;51.338;12.524;2024-02-28T00:13:45;63.97;;;25.33;;
21862;SDS011;11096;51.338;12.524;2024-02-28T00:16:10;66.88;;;25.33;;
21862;SDS011;11096;51.338;12.524;2024-02-28T00:18:36;60.15;;;26.13;;
21862;SDS011;11096;51.338;12.524;2024-02-28T00:21:01;63.95;;;25.02;;
21862;SDS011;11096;51.338;12.524;2024-02-28T00:23:27;65.57;;;24.63;;
21862;SDS011;11096;51.338;12.524;2024-02-28T00:25:52;54.28;;;23.40;;
21862;SDS011;11096;51.338;12.524;2024-02-28T00:28:17;62.05;;;25.02;;
21862;SDS011;11096;51.338;12.524;2024-02-28T00:30:44;57.47;;;23.10;;
21862;SDS011;11096;51.338;12.524;2024-02-28T00:33:09;53.88;;;23.55;;
21862;SDS011;11096;51.338;12.524;2024-02-28T00:35:34;53.50;;;22.10;;
21862;SDS011;11096;51.338;12.524;2024-02-28T00:38:00;46.80;;;20.63;;
21862;SDS011;11096;51.338;12.524;2024-02-28T00:40:25;51.30;;;21.38;;
21862;SDS011;11096;51.338;12.524;2024-02-28T00:42:50;46.70;;;20.52;;
21862;SDS011;11096;51.338;12.524;2024-02-28T00:45:16;50.25;;;21.27;;
21862;SDS011;11096;51.338;12.524;2024-02-28T00:47:41;49.05;;;19.85;;
21862;SDS011;11096;51.338;12.524;2024-02-28T00:50:06;46.00;;;20.27;;
21862;SDS011;11096;51.338;12.524;2024-02-28T00:52:32;45.40;;;18.98;;
21862;SDS011;11096;51.338;12.524;2024-02-28T00:54:57;45.08;;;19.13;;
21862;SDS011;11096;51.338;12.524;2024-02-28T00:57:22;48.33;;;19.33;;
21862;SDS011;11096;51.338;12.524;2024-02-28T00:59:47;42.35;;;19.40;;
21862;SDS011;11096;51.338;12.524;2024-02-28T01:02:13;48.35;;;19.90;;
21862;SDS011;11096;51.338;12.524;2024-02-28T01:04:39;42.40;;;18.92;;
21862;SDS011;11096;51.338;12.524;2024-02-28T01:07:04;41.30;;;18.50;;
21862;SDS011;11096;51.338;12.524;2024-02-28T01:09:29;45.90;;;18.35;;
21862;SDS011;11096;51.338;12.524;2024-02-28T01:11:55;40.63;;;17.38;;
21862;SDS011;11096;51.338;12.524;2024-02-28T01:14:20;34.53;;;17.27;;
21862;SDS011;11096;51.338;12.524;2024-02-28T01:16:45;35.13;;;16.25;;
21862;SDS011;11096;51.338;12.524;2024-02-28T01:19:10;36.90;;;16.73;;
21862;SDS011;11096;51.338;12.524;2024-02-28T01:21:36;41.25;;;16.88;;
21862;SDS011;11096;51.338;12.524;2024-02-28T01:24:01;35.40;;;16.77;;
21862;SDS011;11096;51.338;12.524;2024-02-28T01:26:26;44.45;;;19.60;;
21862;SDS011;11096;51.338;12.524;2024-02-28T01:28:51;42.67;;;19.08;;
21862;SDS011;11096;51.338;12.524;2024-02-28T01:31:17;45.10;;;19.42;;
21862;SDS011;11096;51.338;12.524;2024-02-28T01:33:42;38.50;;;19.80;;
21862;SDS011;11096;51.338;12.524;2024-02-28T01:36:07;45.75;;;19.77;;
21862;SDS011;11096;51.338;12.524;2024-02-28T01:38:32;42.05;;;19.50;;
21862;SDS011;11096;51.338;12.524;2024-02-28T01:40:58;42.88;;;19.58;;
21862;SDS011;11096;51.338;12.524;2024-02-28T01:43:23;44.80;;;20.98;;
21862;SDS011;11096;51.338;12.524;2024-02-28T01:45:49;48.67;;;19.90;;
21862;SDS011;11096;51.338;12.524;2024-02-28T01:48:14;45.30;;;19.65;;
21862;SDS011;11096;51.338;12.524;2024-02-28T01:50:40;44.55;;;19.02;;
21862;SDS011;11096;51.338;12.524;2024-02-28T01:53:06;48.47;;;19.75;;
21862;SDS011;11096;51.338;12.524;2024-02-28T01:55:34;44.42;;;20.17;;
21862;SDS011;11096;51.338;12.524;2024-02-28T01:57:59;45.47;;;19.80;;
21862;SDS011;11096;51.338;12.524;2024-02-28T02:00:25;41.17;;;19.67;;
21862;SDS011;11096;51.338;12.524;2024-02-28T02:02:51;42.22;;;18.55;;
21862;SDS011;11096;51.338;12.524;2024-02-28T02:05:16;42.40;;;18.85;;
21862;SDS011;11096;51.338;12.524;2024-02-28T02:07:45;43.58;;;18.85;;
21862;SDS011;11096;51.338;12.524;2024-02-28T02:10:11;40.33;;;19.42;;
21862;SDS011;11096;51.338;12.524;2024-02-28T02:12:37;46.20;;;18.50;;
21862;SDS011;11096;51.338;12.524;2024-02-28T02:15:03;40.90;;;18.48;;
21862;SDS011;11096;51.338;12.524;2024-02-28T02:17:29;36.85;;;18.13;;
21862;SDS011;11096;51.338;12.524;2024-02-28T02:19:54;45.50;;;18.55;;
21862;SDS011;11096;51.338;12.524;2024-02-28T02:22:19;39.53;;;17.40;;
21862;SDS011;11096;51.338;12.524;2024-02-28T02:24:45;38.88;;;16.50;;
21862;SDS011;11096;51.338;12.524;2024-02-28T02:27:10;41.10;;;17.30;;
21862;SDS011;11096;51.338;12.524;2024-02-28T02:29:35;36.22;;;16.75;;
21862;SDS011;11096;51.338;12.524;2024-02-28T02:32:01;31.65;;;16.13;;
21862;SDS011;11096;51.338;12.524;2024-02-28T02:34:26;32.33;;;15.57;;
21862;SDS011;11096;51.338;12.524;2024-02-28T02:36:51;32.70;;;15.57;;
21862;SDS011;11096;51.338;12.524;2024-02-28T02:39:17;33.42;;;16.13;;
21862;SDS011;11096;51.338;12.524;2024-02-28T02:41:42;30.75;;;16.02;;
21862;SDS011;11096;51.338;12.524;2024-02-28T02:44:08;36.17;;;15.48;;
21862;SDS011;11096;51.338;12.524;2024-02-28T02:46:33;30.50;;;14.85;;
21862;SDS011;11096;51.338;12.524;2024-02-28T02:48:59;33.45;;;15.27;;
21862;SDS011;11096;51.338;12.524;2024-02-28T02:51:24;34.28;;;14.68;;
21862;SDS011;11096;51.338;12.524;2024-02-28T02:53:50;28.70;;;14.10;;
21862;SDS011;11096;51.338;12.524;2024-02-28T02:56:15;32.28;;;13.57;;
21862;SDS011;11096;51.338;12.524;2024-02-28T02:58:41;30.67;;;14.85;;
21862;SDS011;11096;51.338;12.524;2024-02-28T03:01:06;30.08;;;14.00;;
21862;SDS011;11096;51.338;12.524;2024-02-28T03:03:31;35.03;;;15.50;;
21862;SDS011;11096;51.338;12.524;2024-02-28T03:05:56;35.63;;;15.13;;
21862;SDS011;11096;51.338;12.524;2024-02-28T03:08:21;34.22;;;14.95;;
21862;SDS011;11096;51.338;12.524;2024-02-28T03:10:47;29.48;;;14.13;;
21862;SDS011;11096;51.338;12.524;2024-02-28T03:13:12;29.25;;;13.73;;
21862;SDS011;11096;51.338;12.524;2024-02-28T03:15:37;28.85;;;14.55;;
21862;SDS011;11096;51.338;12.524;2024-02-28T03:18:03;32.92;;;15.45;;
21862;SDS011;11096;51.338;12.524;2024-02-28T03:20:28;36.00;;;15.80;;
21862;SDS011;11096;51.338;12.524;2024-02-28T03:22:53;32.00;;;16.10;;
21862;SDS011;11096;51.338;12.524;2024-02-28T03:25:19;31.80;;;15.02;;
21862;SDS011;11096;51.338;12.524;2024-02-28T03:27:44;36.30;;;17.65;;
21862;SDS011;11096;51.338;12.524;2024-02-28T03:30:09;50.65;;;23.23;;
21862;SDS011;11096;51.338;12.524;2024-02-28T03:32:34;53.55;;;22.20;;
21862;SDS011;11096;51.338;12.524;2024-02-28T03:35:00;43.22;;;21.38;;
21862;SDS011;11096;51.338;12.524;2024-02-28T03:37:25;46.58;;;21.75;;
21862;SDS011;11096;51.338;12.524;2024-02-28T03:39:51;37.92;;;19.88;;
21862;SDS011;11096;51.338;12.524;2024-02-28T03:42:16;37.92;;;18.38;;
21862;SDS011;11096;51.338;12.524;2024-02-28T03:44:41;38.28;;;19.90;;
21862;SDS011;11096;51.338;12.524;2024-02-28T03:47:07;37.67;;;19.00;;
21862;SDS011;11096;51.338;12.524;2024-02-28T03:49:32;38.00;;;19.00;;
21862;SDS011;11096;51.338;12.524;2024-02-28T03:51:57;38.80;;;19.75;;
21862;SDS011;11096;51.338;12.524;2024-02-28T03:54:22;37.58;;;18.75;;
21862;SDS011;11096;51.338;12.524;2024-02-28T03:56:47;36.40;;;18.85;;
21862;SDS011;11096;51.338;12.524;2024-02-28T03:59:13;41.55;;;19.15;;
21862;SDS011;11096;51.338;12.524;2024-02-28T04:01:38;33.65;;;17.58;;
21862;SDS011;11096;51.338;12.524;2024-02-28T04:04:03;37.17;;;18.38;;
21862;SDS011;11096;51.338;12.524;2024-02-28T04:06:29;35.72;;;18.05;;
21862;SDS011;11096;51.338;12.524;2024-02-28T04:08:54;42.72;;;18.85;;
21862;SDS011;11096;51.338;12.524;2024-02-28T04:11:20;37.20;;;19.77;;
21862;SDS011;11096;51.338;12.524;2024-02-28T04:13:45;32.20;;;17.02;;
21862;SDS011;11096;51.338;12.524;2024-02-28T04:16:10;35.38;;;18.00;;
21862;SDS011;11096;51.338;12.524;2024-02-28T04:18:36;33.17;;;17.98;;
21862;SDS011;11096;51.338;12.524;2024-02-28T04:21:01;32.42;;;17.70;;
21862;SDS011;11096;51.338;12.524;2024-02-28T04:23:26;38.00;;;18.70;;
21862;SDS011;11096;51.338;12.524;2024-02-28T04:25:52;41.90;;;19.55;;
21862;SDS011;11096;51.338;12.524;2024-02-28T04:28:17;43.25;;;20.58;;
21862;SDS011;11096;51.338;12.524;2024-02-28T04:30:42;40.63;;;20.67;;
21862;SDS011;11096;51.338;12.524;2024-02-28T04:33:08;40.78;;;21.00;;
21862;SDS011;11096;51.338;12.524;2024-02-28T04:35:33;40.88;;;20.92;;
21862;SDS011;11096;51.338;12.524;2024-02-28T04:37:58;41.78;;;22.20;;
21862;SDS011;11096;51.338;12.524;2024-02-28T04:40:24;44.00;;;22.60;;
21862;SDS011;11096;51.338;12.524;2024-02-28T04:42:49;50.83;;;23.33;;
21862;SDS011;11096;51.338;12.524;2024-02-28T04:45:14;48.00;;;23.98;;
21862;SDS011;11096;51.338;12.524;2024-02-28T04:47:39;49.95;;;24.33;;
21862;SDS011;11096;51.338;12.524;2024-02-28T04:50:05;42.33;;;23.13;;
21862;SDS011;11096;51.338;12.524;2024-02-28T04:52:33;48.90;;;24.55;;
21862;SDS011;11096;51.338;12.524;2024-02-28T04:54:59;44.33;;;22.25;;
21862;SDS011;11096;51.338;12.524;2024-02-28T04:57:24;47.47;;;22.77;;
21862;SDS011;11096;51.338;12.524;2024-02-28T04:59:49;47.78;;;22.88;;
21862;SDS011;11096;51.338;12.524;2024-02-28T05:02:15;44.17;;;21.60;;
21862;SDS011;11096;51.338;12.524;2024-02-28T05:04:40;44.30;;;21.48;;
21862;SDS011;11096;51.338;12.524;2024-02-28T05:07:05;41.42;;;21.05;;
21862;SDS011;11096;51.338;12.524;2024-02-28T05:09:32;44.17;;;21.00;;
21862;SDS011;11096;51.338;12.524;2024-02-28T05:11:57;39.72;;;19.52;;
21862;SDS011;11096;51.338;12.524;2024-02-28T05:14:23;38.20;;;19.42;;
21862;SDS011;11096;51.338;12.524;2024-02-28T05:16:49;40.30;;;18.83;;
21862;SDS011;11096;51.338;12.524;2024-02-28T05:19:14;37.42;;;20.17;;
21862;SDS011;11096;51.338;12.524;2024-02-28T05:21:40;33.80;;;18.30;;
21862;SDS011;11096;51.338;12.524;2024-02-28T05:24:06;37.40;;;18.83;;
21862;SDS011;11096;51.338;12.524;2024-02-28T05:26:31;40.67;;;20.25;;
21862;SDS011;11096;51.338;12.524;2024-02-28T05:28:58;33.92;;;19.08;;
21862;SDS011;11096;51.338;12.524;2024-02-28T05:31:24;43.42;;;20.75;;
21862;SDS011;11096;51.338;12.524;2024-02-28T05:33:53;37.03;;;18.73;;
21862;SDS011;11096;51.338;12.524;2024-02-28T05:36:19;37.40;;;19.83;;
21862;SDS011;11096;51.338;12.524;2024-02-28T05:38:44;37.80;;;18.38;;
21862;SDS011;11096;51.338;12.524;2024-02-28T05:41:10;38.33;;;20.55;;
21862;SDS011;11096;51.338;12.524;2024-02-28T05:43:38;40.65;;;20.35;;
21862;SDS011;11096;51.338;12.524;2024-02-28T05:46:03;40.13;;;20.70;;
21862;SDS011;11096;51.338;12.524;2024-02-28T05:48:28;43.40;;;21.05;;
21862;SDS011;11096;51.338;12.524;2024-02-28T05:50:54;40.25;;;22.60;;
21862;SDS011;11096;51.338;12.524;2024-02-28T05:53:19;42.90;;;22.88;;
21862;SDS011;11096;51.338;12.524;2024-02-28T05:55:45;46.83;;;23.85;;
21862;SDS011;11096;51.338;12.524;2024-02-28T05:58:10;38.47;;;21.00;;
21862;SDS011;11096;51.338;12.524;2024-02-28T06:00:35;39.88;;;21.67;;
21862;SDS011;11096;51.338;12.524;2024-02-28T06:03:01;39.50;;;20.95;;
21862;SDS011;11096;51.338;12.524;2024-02-28T06:05:26;45.17;;;22.05;;
21862;SDS011;11096;51.338;12.524;2024-02-28T06:07:51;48.17;;;23.70;;
21862;SDS011;11096;51.338;12.524;2024-02-28T06:10:16;42.65;;;22.60;;
21862;SDS011;11096;51.338;12.524;2024-02-28T06:12:42;43.85;;;22.85;;
21862;SDS011;11096;51.338;12.524;2024-02-28T06:15:07;44.97;;;23.48;;
21862;SDS011;11096;51.338;12.524;2024-02-28T06:17:32;47.42;;;24.42;;
21862;SDS011;11096;51.338;12.524;2024-02-28T06:19:57;44.60;;;23.30;;
21862;SDS011;11096;51.338;12.524;2024-02-28T06:22:23;45.85;;;23.13;;
21862;SDS011;11096;51.338;12.524;2024-02-28T06:24:48;41.75;;;22.75;;
21862;SDS011;11096;51.338;12.524;2024-02-28T06:27:13;44.33;;;24.58;;
21862;SDS011;11096;51.338;12.524;2024-02-28T06:29:39;39.80;;;22.63;;
21862;SDS011;11096;51.338;12.524;2024-02-28T06:32:04;44.22;;;23.35;;
21862;SDS011;11096;51.338;12.524;2024-02-28T06:34:30;43.67;;;22.98;;
21862;SDS011;11096;51.338;12.524;2024-02-28T06:36:55;42.67;;;22.33;;
21862;SDS011;11096;51.338;12.524;2024-02-28T06:39:21;45.92;;;23.63;;
21862;SDS011;11096;51.338;12.524;2024-02-28T06:41:46;46.28;;;24.08;;
21862;SDS011;11096;51.338;12.524;2024-02-28T06:44:11;45.03;;;22.98;;
21862;SDS011;11096;51.338;12.524;2024-02-28T06:46:36;41.63;;;22.27;;
21862;SDS011;11096;51.338;12.524;2024-02-28T06:49:02;38.35;;;21.13;;
21862;SDS011;11096;51.338;12.524;2024-02-28T06:51:27;41.90;;;21.92;;
21862;SDS011;11096;51.338;12.524;2024-02-28T06:53:52;39.40;;;21.80;;
21862;SDS011;11096;51.338;12.524;2024-02-28T06:56:18;40.40;;;21.48;;
21862;SDS011;11096;51.338;12.524;2024-02-28T06:58:43;40.33;;;21.15;;
21862;SDS011;11096;51.338;12.524;2024-02-28T07:01:08;40.22;;;21.30;;
21862;SDS011;11096;51.338;12.524;2024-02-28T07:03:33;39.72;;;21.33;;
21862;SDS011;11096;51.338;12.524;2024-02-28T07:05:59;38.65;;;20.80;;
21862;SDS011;11096;51.338;12.524;2024-02-28T07:08:24;42.58;;;21.90;;
21862;SDS011;11096;51.338;12.524;2024-02-28T07:10:49;42.00;;;23.40;;
21862;SDS011;11096;51.338;12.524;2024-02-28T07:13:18;42.70;;;22.13;;
21862;SDS011;11096;51.338;12.524;2024-02-28T07:15:44;41.92;;;22.48;;
21862;SDS011;11096;51.338;12.524;2024-02-28T07:18:09;41.10;;;22.58;;
21862;SDS011;11096;51.338;12.524;2024-02-28T07:20:34;43.38;;;23.88;;
21862;SDS011;11096;51.338;12.524;2024-02-28T07:22:59;35.90;;;19.75;;
21862;SDS011;11096;51.338;12.524;2024-02-28T07:25:25;35.60;;;20.15;;
21862;SDS011;11096;51.338;12.524;2024-02-28T07:27:50;36.30;;;20.88;;
21862;SDS011;11096;51.338;12.524;2024-02-28T07:30:16;36.90;;;19.88;;
21862;SDS011;11096;51.338;12.524;2024-02-28T07:32:41;35.40;;;19.90;;
21862;SDS011;11096;51.338;12.524;2024-02-28T07:35:06;34.33;;;18.15;;
21862;SDS011;11096;51.338;12.524;2024-02-28T07:37:32;31.60;;;18.67;;
21862;SDS011;11096;51.338;12.524;2024-02-28T07:39:57;33.72;;;17.75;;
21862;SDS011;11096;51.338;12.524;2024-02-28T07:42:22;35.95;;;19.83;;
21862;SDS011;11096;51.338;12.524;2024-02-28T07:44:47;37.17;;;18.95;;
21862;SDS011;11096;51.338;12.524;2024-02-28T07:47:14;32.70;;;17.40;;
21862;SDS011;11096;51.338;12.524;2024-02-28T07:49:39;39.58;;;20.98;;
21862;SDS011;11096;51.338;12.524;2024-02-28T07:52:05;33.40;;;18.42;;
21862;SDS011;11096;51.338;12.524;2024-02-28T07:54:30;30.30;;;17.85;;
21862;SDS011;11096;51.338;12.524;2024-02-28T07:56:55;28.50;;;16.88;;
21862;SDS011;11096;51.338;12.524;2024-02-28T07:59:20;32.13;;;18.77;;
21862;SDS011;11096;51.338;12.524;2024-02-28T08:01:46;30.75;;;17.17;;
21862;SDS011;11096;51.338;12.524;2024-02-28T08:04:11;31.95;;;17.02;;
21862;SDS011;11096;51.338;12.524;2024-02-28T08:06:36;28.85;;;16.83;;
21862;SDS011;11096;51.338;12.524;2024-02-28T08:09:01;28.30;;;16.55;;
21862;SDS011;11096;51.338;12.524;2024-02-28T08:11:29;31.20;;;17.38;;
21862;SDS011;11096;51.338;12.524;2024-02-28T08:13:54;29.25;;;17.02;;
21862;SDS011;11096;51.338;12.524;2024-02-28T08:16:19;27.58;;;16.85;;
21862;SDS011;11096;51.338;12.524;2024-02-28T08:18:45;32.60;;;16.50;;
21862;SDS011;11096;51.338;12.524;2024-02-28T08:21:10;31.65;;;16.30;;
21862;SDS011;11096;51.338;12.524;2024-02-28T08:23:35;28.77;;;17.15;;
21862;SDS011;11096;51.338;12.524;2024-02-28T08:26:00;40.40;;;20.73;;
21862;SDS011;11096;51.338;12.524;2024-02-28T08:28:26;32.92;;;18.65;;
21862;SDS011;11096;51.338;12.524;2024-02-28T08:30:51;31.98;;;18.42;;
21862;SDS011;11096;51.338;12.524;2024-02-28T08:33:16;31.40;;;18.65;;
21862;SDS011;11096;51.338;12.524;2024-02-28T08:35:41;28.88;;;17.73;;
21862;SDS011;11096;51.338;12.524;2024-02-28T08:38:08;29.50;;;17.30;;
21862;SDS011;11096;51.338;12.524;2024-02-28T08:40:33;32.88;;;18.92;;
21862;SDS011;11096;51.338;12.524;2024-02-28T08:42:58;29.90;;;18.83;;
21862;SDS011;11096;51.338;12.524;2024-02-28T08:45:23;33.78;;;19.58;;
21862;SDS011;11096;51.338;12.524;2024-02-28T08:47:49;43.53;;;24.63;;
21862;SDS011;11096;51.338;12.524;2024-02-28T08:50:14;51.35;;;27.33;;
21862;SDS011;11096;51.338;12.524;2024-02-28T08:52:39;46.53;;;28.10;;
21862;SDS011;11096;51.338;12.524;2024-02-28T08:55:05;51.90;;;29.77;;
21862;SDS011;11096;51.338;12.524;2024-02-28T08:57:30;52.85;;;29.55;;
21862;SDS011;11096;51.338;12.524;2024-02-28T08:59:55;40.25;;;23.02;;
21862;SDS011;11096;51.338;12.524;2024-02-28T09:02:21;38.42;;;22.05;;
21862;SDS011;11096;51.338;12.524;2024-02-28T09:04:46;47.03;;;24.98;;
21862;SDS011;11096;51.338;12.524;2024-02-28T09:07:15;49.33;;;26.55;;
21862;SDS011;11096;51.338;12.524;2024-02-28T09:09:44;45.30;;;26.05;;
21862;SDS011;11096;51.338;12.524;2024-02-28T09:12:09;45.20;;;25.08;;
21862;SDS011;11096;51.338;12.524;2024-02-28T09:14:35;41.67;;;24.95;;
21862;SDS011;11096;51.338;12.524;2024-02-28T09:17:00;36.83;;;24.00;;
21862;SDS011;11096;51.338;12.524;2024-02-28T09:19:29;33.30;;;20.40;;
21862;SDS011;11096;51.338;12.524;2024-02-28T09:21:54;34.88;;;21.67;;
21862;SDS011;11096;51.338;12.524;2024-02-28T09:24:19;37.85;;;21.58;;
21862;SDS011;11096;51.338;12.524;2024-02-28T09:26:44;30.20;;;19.77;;
21862;SDS011;11096;51.338;12.524;2024-02-28T09:29:10;33.85;;;21.27;;
21862;SDS011;11096;51.338;12.524;2024-02-28T09:31:35;35.78;;;21.48;;
21862;SDS011;11096;51.338;12.524;2024-02-28T09:34:00;28.85;;;18.85;;
21862;SDS011;11096;51.338;12.524;2024-02-28T09:36:29;30.27;;;20.17;;
21862;SDS011;11096;51.338;12.524;2024-02-28T09:38:54;24.92;;;16.00;;
21862;SDS011;11096;51.338;12.524;2024-02-28T09:41:20;23.95;;;15.73;;
21862;SDS011;11096;51.338;12.524;2024-02-28T09:43:45;25.98;;;15.55;;
21862;SDS011;11096;51.338;12.524;2024-02-28T09:46:11;24.25;;;15.18;;
21862;SDS011;11096;51.338;12.524;2024-02-28T09:48:39;24.20;;;16.23;;
21862;SDS011;11096;51.338;12.524;2024-02-28T09:51:05;22.92;;;15.35;;
21862;SDS011;11096;51.338;12.524;2024-02-28T09:53:31;22.35;;;14.88;;
21862;SDS011;11096;51.338;12.524;2024-02-28T09:55:56;22.38;;;14.65;;
21862;SDS011;11096;51.338;12.524;2024-02-28T09:58:21;21.20;;;14.38;;
21862;SDS011;11096;51.338;12.524;2024-02-28T10:00:48;24.52;;;15.65;;
21862;SDS011;11096;51.338;12.524;2024-02-28T10:03:15;23.50;;;15.38;;
21862;SDS011;11096;51.338;12.524;2024-02-28T10:05:41;21.63;;;15.27;;
21862;SDS011;11096;51.338;12.524;2024-02-28T10:08:07;21.35;;;14.32;;
21862;SDS011;11096;51.338;12.524;2024-02-28T10:10:36;17.17;;;13.35;;
21862;SDS011;11096;51.338;12.524;2024-02-28T10:13:02;18.85;;;13.88;;
21862;SDS011;11096;51.338;12.524;2024-02-28T10:15:27;18.23;;;14.13;;
21862;SDS011;11096;51.338;12.524;2024-02-28T10:17:53;17.63;;;13.10;;
21862;SDS011;11096;51.338;12.524;2024-02-28T10:20:18;19.98;;;16.17;;
21862;SDS011;11096;51.338;12.524;2024-02-28T10:22:44;16.75;;;13.65;;
21862;SDS011;11096;51.338;12.524;2024-02-28T10:25:10;17.88;;;13.40;;
21862;SDS011;11096;51.338;12.524;2024-02-28T10:27:35;18.02;;;13.35;;
21862;SDS011;11096;51.338;12.524;2024-02-28T10:30:01;18.20;;;14.30;;
21862;SDS011;11096;51.338;12.524;2024-02-28T10:32:30;20.25;;;13.55;;
21862;SDS011;11096;51.338;12.524;2024-02-28T10:34:55;14.95;;;11.68;;
21862;SDS011;11096;51.338;12.524;2024-02-28T10:37:20;14.63;;;12.35;;
21862;SDS011;11096;51.338;12.524;2024-02-28T10:39:46;16.85;;;12.82;;
21862;SDS011;11096;51.338;12.524;2024-02-28T10:42:12;17.08;;;12.98;;
21862;SDS011;11096;51.338;12.524;2024-02-28T10:44:38;17.38;;;13.05;;
21862;SDS011;11096;51.338;12.524;2024-02-28T10:47:04;18.52;;;14.20;;
21862;SDS011;11096;51.338;12.524;2024-02-28T10:49:30;17.33;;;13.77;;
21862;SDS011;11096;51.338;12.524;2024-02-28T10:51:56;17.92;;;14.18;;
21862;SDS011;11096;51.338;12.524;2024-02-28T10:54:21;20.85;;;17.40;;
21862;SDS011;11096;51.338;12.524;2024-02-28T10:56:49;20.55;;;17.02;;
21862;SDS011;11096;51.338;12.524;2024-02-28T10:59:14;20.25;;;17.02;;
21862;SDS011;11096;51.338;12.524;2024-02-28T11:01:40;22.17;;;16.42;;
21862;SDS011;11096;51.338;12.524;2024-02-28T11:04:07;22.17;;;18.38;;
21862;SDS011;11096;51.338;12.524;2024-02-28T11:06:32;24.42;;;20.05;;
21862;SDS011;11096;51.338;12.524;2024-02-28T11:08:59;22.93;;;19.13;;
21862;SDS011;11096;51.338;12.524;2024-02-28T11:11:24;23.42;;;17.90;;
21862;SDS011;11096;51.338;12.524;2024-02-28T11:13:53;21.15;;;18.02;;
21862;SDS011;11096;51.338;12.524;2024-02-28T11:16:25;21.45;;;17.92;;
21862;SDS011;11096;51.338;12.524;2024-02-28T11:18:51;22.35;;;18.27;;
21862;SDS011;11096;51.338;12.524;2024-02-28T11:21:16;22.10;;;19.67;;
21862;SDS011;11096;51.338;12.524;2024-02-28T11:23:41;21.88;;;18.52;;
21862;SDS011;11096;51.338;12.524;2024-02-28T11:26:11;21.35;;;17.83;;
21862;SDS011;11096;51.338;12.524;2024-02-28T11:28:37;20.17;;;17.98;;
21862;SDS011;11096;51.338;12.524;2024-02-28T11:31:02;22.27;;;18.25;;
21862;SDS011;11096;51.338;12.524;2024-02-28T11:33:27;21.42;;;18.40;;
21862;SDS011;11096;51.338;12.524;2024-02-28T11:35:58;22.90;;;19.70;;
21862;SDS011;11096;51.338;12.524;2024-02-28T11:38:27;21.88;;;18.67;;
21862;SDS011;11096;51.338;12.524;2024-02-28T11:40:52;21.63;;;19.30;;
21862;SDS011;11096;51.338;12.524;2024-02-28T11:43:18;23.83;;;21.05;;
21862;SDS011;11096;51.338;12.524;2024-02-28T11:45:44;21.88;;;18.45;;
21862;SDS011;11096;51.338;12.524;2024-02-28T11:48:11;20.92;;;18.35;;
21862;SDS011;11096;51.338;12.524;2024-02-28T11:50:37;20.25;;;18.13;;
21862;SDS011;11096;51.338;12.524;2024-02-28T11:53:02;20.83;;;18.00;;
21862;SDS011;11096;51.338;12.524;2024-02-28T11:55:29;19.08;;;17.00;;
21862;SDS011;11096;51.338;12.524;2024-02-28T11:57:55;21.55;;;18.30;;
21862;SDS011;11096;51.338;12.524;2024-02-28T12:00:20;19.58;;;17.02;;
21862;SDS011;11096;51.338;12.524;2024-02-28T12:02:45;21.25;;;17.50;;
21862;SDS011;11096;51.338;12.524;2024-02-28T12:05:11;19.67;;;17.40;;
21862;SDS011;11096;51.338;12.524;2024-02-28T12:07:36;19.10;;;16.23;;
21862;SDS011;11096;51.338;12.524;2024-02-28T12:10:01;19.48;;;16.35;;
21862;SDS011;11096;51.338;12.524;2024-02-28T12:12:27;19.25;;;17.25;;
21862;SDS011;11096;51.338;12.524;2024-02-28T12:14:52;20.70;;;17.75;;
21862;SDS011;11096;51.338;12.524;2024-02-28T12:17:17;20.70;;;17.13;;
21862;SDS011;11096;51.338;12.524;2024-02-28T12:19:43;20.40;;;16.52;;
21862;SDS011;11096;51.338;12.524;2024-02-28T12:22:09;20.30;;;17.63;;
21862;SDS011;11096;51.338;12.524;2024-02-28T12:24:34;19.77;;;17.17;;
21862;SDS011;11096;51.338;12.524;2024-02-28T12:26:59;21.05;;;17.08;;
21862;SDS011;11096;51.338;12.524;2024-02-28T12:29:25;21.87;;;18.40;;
21862;SDS011;11096;51.338;12.524;2024-02-28T12:31:50;21.95;;;16.30;;
21862;SDS011;11096;51.338;12.524;2024-02-28T12:34:15;20.33;;;16.23;;
21862;SDS011;11096;51.338;12.524;2024-02-28T12:36:41;19.40;;;16.42;;
21862;SDS011;11096;51.338;12.524;2024-02-28T12:39:07;20.25;;;16.40;;
21862;SDS011;11096;51.338;12.524;2024-02-28T12:41:32;20.58;;;15.20;;
21862;SDS011;11096;51.338;12.524;2024-02-28T12:43:57;20.95;;;16.00;;
21862;SDS011;11096;51.338;12.524;2024-02-28T12:46:23;22.60;;;16.67;;
21862;SDS011;11096;51.338;12.524;2024-02-28T12:48:48;17.17;;;15.37;;
21862;SDS011;11096;51.338;12.524;2024-02-28T12:51:20;18.23;;;15.23;;
21862;SDS011;11096;51.338;12.524;2024-02-28T12:53:45;18.63;;;15.43;;
21862;SDS011;11096;51.338;12.524;2024-02-28T12:56:11;18.35;;;15.07;;
21862;SDS011;11096;51.338;12.524;2024-02-28T12:58:36;20.70;;;15.15;;
21862;SDS011;11096;51.338;12.524;2024-02-28T13:01:01;17.40;;;14.60;;
21862;SDS011;11096;51.338;12.524;2024-02-28T13:03:27;17.35;;;13.75;;
21862;SDS011;11096;51.338;12.524;2024-02-28T13:05:52;17.20;;;14.40;;
21862;SDS011;11096;51.338;12.524;2024-02-28T13:08:17;17.95;;;13.45;;
21862;SDS011;11096;51.338;12.524;2024-02-28T13:10:43;20.95;;;14.15;;
21862;SDS011;11096;51.338;12.524;2024-02-28T13:13:08;17.92;;;14.02;;
21862;SDS011;11096;51.338;12.524;2024-02-28T13:15:33;19.05;;;13.68;;
21862;SDS011;11096;51.338;12.524;2024-02-28T13:17:59;17.40;;;14.30;;
21862;SDS011;11096;51.338;12.524;2024-02-28T13:20:26;19.27;;;14.48;;
21862;SDS011;11096;51.338;12.524;2024-02-28T13:22:51;18.17;;;14.75;;
21862;SDS011;11096;51.338;12.524;2024-02-28T13:25:16;18.63;;;14.35;;
21862;SDS011;11096;51.338;12.524;2024-02-28T13:27:44;17.85;;;13.50;;
21862;SDS011;11096;51.338;12.524;2024-02-28T13:30:09;17.60;;;14.00;;
21862;SDS011;11096;51.338;12.524;2024-02-28T13:32:35;19.05;;;13.27;;
21862;SDS011;11096;51.338;12.524;2024-02-28T13:35:00;16.63;;;12.75;;
21862;SDS011;11096;51.338;12.524;2024-02-28T13:37:26;17.52;;;13.18;;
21862;SDS011;11096;51.338;12.524;2024-02-28T13:39:51;18.85;;;13.43;;
21862;SDS011;11096;51.338;12.524;2024-02-28T13:42:17;18.83;;;14.05;;
21862;SDS011;11096;51.338;12.524;2024-02-28T13:44:45;14.77;;;12.65;;
21862;SDS011;11096;51.338;12.524;2024-02-28T13:47:10;18.83;;;13.30;;
21862;SDS011;11096;51.338;12.524;2024-02-28T13:49:37;18.08;;;13.57;;
21862;SDS011;11096;51.338;12.524;2024-02-28T13:52:02;15.57;;;12.63;;
21862;SDS011;11096;51.338;12.524;2024-02-28T13:54:27;17.80;;;13.75;;
21862;SDS011;11096;51.338;12.524;2024-02-28T13:56:53;15.82;;;12.70;;
21862;SDS011;11096;51.338;12.524;2024-02-28T13:59:18;16.17;;;12.60;;